createdAt,value
2023-10-10T00:00:31.832Z,96.66
2023-10-10T00:01:31.902Z,96.66
2023-10-10T00:02:31.867Z,96.66
2023-10-10T00:03:31.875Z,96.75
2023-10-10T00:04:31.780Z,96.66
2023-10-10T00:05:31.803Z,96.75
2023-10-10T00:06:31.746Z,96.75
2023-10-10T00:07:31.740Z,96.75
2023-10-10T00:08:31.756Z,96.86
2023-10-10T00:09:31.738Z,96.86
2023-10-10T00:10:31.696Z,96.86
2023-10-10T00:11:31.709Z,96.96
2023-10-10T00:12:31.900Z,96.96
2023-10-10T00:13:31.706Z,96.86
2023-10-10T00:14:31.675Z,96.96
2023-10-10T00:15:31.671Z,96.86
2023-10-10T00:16:31.634Z,96.86
2023-10-10T00:17:31.656Z,96.86
2023-10-10T00:18:31.586Z,96.86
2023-10-10T00:19:31.573Z,96.86
2023-10-10T00:20:31.645Z,96.86
2023-10-10T00:21:31.561Z,96.96
2023-10-10T00:22:31.545Z,96.90
2023-10-10T00:23:31.606Z,96.86
2023-10-10T00:24:31.523Z,96.86
2023-10-10T00:25:31.521Z,96.90
2023-10-10T00:26:31.569Z,96.90
2023-10-10T00:27:31.486Z,97.00
2023-10-10T00:28:31.476Z,97.00
2023-10-10T00:29:31.478Z,97.00
2023-10-10T00:30:31.440Z,97.00
2023-10-10T00:31:31.457Z,97.00
2023-10-10T00:32:31.485Z,97.11
2023-10-10T00:33:31.401Z,97.11
2023-10-10T00:34:31.393Z,97.11
2023-10-10T00:35:31.381Z,97.11
2023-10-10T00:36:31.353Z,97.11
2023-10-10T00:37:31.351Z,97.11
2023-10-10T00:38:31.361Z,97.11
2023-10-10T00:39:31.301Z,97.11
2023-10-10T00:40:31.292Z,97.11
2023-10-10T00:41:31.317Z,97.11
2023-10-10T00:42:31.282Z,97.11
2023-10-10T00:43:31.251Z,97.11
2023-10-10T00:44:31.287Z,97.00
2023-10-10T00:45:31.215Z,97.00
2023-10-10T00:46:31.261Z,96.90
2023-10-10T00:47:31.363Z,97.00
2023-10-10T00:48:31.568Z,97.00
2023-10-10T00:49:31.179Z,97.00
2023-10-10T00:50:31.236Z,97.00
2023-10-10T00:51:31.160Z,97.00
2023-10-10T00:52:31.160Z,97.00
2023-10-10T00:53:31.161Z,97.00
2023-10-10T00:54:31.117Z,97.00
2023-10-10T00:55:31.096Z,97.00
2023-10-10T00:56:31.161Z,97.11
2023-10-10T00:57:31.076Z,97.11
2023-10-10T00:58:31.081Z,97.00
2023-10-10T00:59:31.100Z,97.11
2023-10-10T01:00:31.439Z,97.11
2023-10-10T01:01:31.044Z,97.11
2023-10-10T01:02:31.176Z,97.11
2023-10-10T01:03:31.205Z,97.20
2023-10-10T01:04:31.006Z,97.20
2023-10-10T01:05:30.982Z,97.20
2023-10-10T01:06:30.950Z,97.11
2023-10-10T01:07:30.941Z,97.11
2023-10-10T01:08:30.964Z,97.11
2023-10-10T01:09:30.925Z,97.20
2023-10-10T01:10:30.927Z,97.25
2023-10-10T01:11:30.962Z,97.11
2023-10-10T01:12:30.868Z,97.25
2023-10-10T01:13:30.868Z,97.25
2023-10-10T01:14:30.966Z,97.15
2023-10-10T01:15:30.822Z,97.15
2023-10-10T01:16:30.860Z,97.15
2023-10-10T01:17:31.021Z,97.15
2023-10-10T01:18:30.826Z,97.25
2023-10-10T01:19:30.828Z,97.25
2023-10-10T01:20:30.852Z,97.25
2023-10-10T01:21:30.756Z,97.25
2023-10-10T01:22:30.780Z,97.25
2023-10-10T01:23:30.797Z,97.25
2023-10-10T01:24:30.735Z,97.15
2023-10-10T01:25:30.737Z,97.15
2023-10-10T01:26:30.723Z,97.15
2023-10-10T01:27:30.702Z,97.15
2023-10-10T01:28:30.700Z,97.15
2023-10-10T01:29:30.674Z,97.25
2023-10-10T01:30:30.664Z,97.25
2023-10-10T01:31:30.630Z,97.25
2023-10-10T01:32:30.714Z,97.25
2023-10-10T01:33:30.597Z,97.25
2023-10-10T01:34:30.583Z,97.25
2023-10-10T01:35:30.635Z,97.25
2023-10-10T01:36:30.578Z,97.25
2023-10-10T01:37:30.559Z,97.25
2023-10-10T01:38:30.585Z,97.25
2023-10-10T01:39:30.510Z,97.25
2023-10-10T01:40:30.528Z,97.15
2023-10-10T01:41:30.550Z,97.15
2023-10-10T01:42:30.481Z,97.15
2023-10-10T01:43:30.498Z,97.15
2023-10-10T01:44:30.530Z,97.15
2023-10-10T01:45:30.465Z,97.15
2023-10-10T01:46:30.448Z,97.15
2023-10-10T01:47:30.483Z,97.25
2023-10-10T01:48:30.415Z,97.25
2023-10-10T01:49:30.693Z,97.25
2023-10-10T01:50:30.381Z,97.25
2023-10-10T01:51:30.368Z,97.15
2023-10-10T01:52:30.422Z,97.15
2023-10-10T01:53:30.351Z,97.15
2023-10-10T01:54:30.354Z,97.15
2023-10-10T01:55:30.308Z,97.15
2023-10-10T01:56:30.362Z,97.25
2023-10-10T01:57:30.309Z,97.25
2023-10-10T01:58:30.281Z,97.25
2023-10-10T01:59:30.314Z,97.25
2023-10-10T02:00:30.406Z,97.35
2023-10-10T02:01:30.272Z,97.35
2023-10-10T02:02:30.363Z,97.45
2023-10-10T02:03:30.371Z,97.45
2023-10-10T02:04:30.188Z,97.56
2023-10-10T02:05:30.244Z,97.66
2023-10-10T02:06:30.163Z,97.66
2023-10-10T02:07:30.160Z,97.66
2023-10-10T02:08:30.174Z,97.66
2023-10-10T02:09:30.111Z,97.66
2023-10-10T02:10:30.122Z,97.76
2023-10-10T02:11:30.124Z,97.76
2023-10-10T02:12:30.111Z,97.76
2023-10-10T02:13:30.055Z,97.86
2023-10-10T02:14:30.073Z,97.86
2023-10-10T02:15:30.036Z,97.96
2023-10-10T02:16:30.071Z,97.96
2023-10-10T02:17:30.135Z,97.96
2023-10-10T02:18:30.042Z,97.96
2023-10-10T02:19:32.890Z,97.96
2023-10-10T02:20:30.034Z,97.96
2023-10-10T02:21:29.968Z,97.86
2023-10-10T02:22:29.961Z,97.86
2023-10-10T02:23:29.993Z,97.86
2023-10-10T02:24:29.923Z,97.86
2023-10-10T02:25:29.904Z,97.86
2023-10-10T02:26:30.030Z,97.86
2023-10-10T02:27:29.880Z,97.76
2023-10-10T02:28:29.914Z,97.76
2023-10-10T02:29:29.896Z,97.76
2023-10-10T02:30:29.908Z,97.76
2023-10-10T02:31:29.869Z,97.76
2023-10-10T02:32:29.923Z,97.86
2023-10-10T02:33:29.820Z,97.86
2023-10-10T02:34:29.816Z,97.86
2023-10-10T02:35:29.825Z,97.86
2023-10-10T02:36:29.781Z,97.76
2023-10-10T02:37:29.756Z,97.76
2023-10-10T02:38:29.840Z,97.76
2023-10-10T02:39:29.792Z,97.76
2023-10-10T02:40:29.733Z,97.76
2023-10-10T02:41:29.734Z,97.76
2023-10-10T02:42:29.725Z,97.76
2023-10-10T02:43:29.690Z,97.66
2023-10-10T02:44:29.712Z,97.66
2023-10-10T02:45:29.799Z,97.66
2023-10-10T02:46:29.679Z,97.56
2023-10-10T02:47:29.732Z,97.60
2023-10-10T02:48:29.615Z,97.56
2023-10-10T02:49:29.595Z,97.66
2023-10-10T02:50:29.630Z,97.76
2023-10-10T02:51:29.640Z,97.76
2023-10-10T02:52:29.588Z,97.76
2023-10-10T02:53:29.613Z,97.66
2023-10-10T02:54:29.863Z,97.76
2023-10-10T02:55:29.540Z,97.66
2023-10-10T02:56:29.540Z,97.66
2023-10-10T02:57:29.518Z,97.66
2023-10-10T02:58:29.469Z,97.66
2023-10-10T02:59:39.734Z,97.71
2023-10-10T03:00:29.872Z,97.71
2023-10-10T03:01:29.862Z,97.60
2023-10-10T03:02:29.712Z,97.60
2023-10-10T03:03:29.914Z,97.40
2023-10-10T03:04:29.776Z,97.40
2023-10-10T03:05:29.582Z,97.40
2023-10-10T03:06:29.616Z,97.40
2023-10-10T03:07:29.446Z,97.40
2023-10-10T03:08:29.572Z,97.40
2023-10-10T03:09:29.397Z,97.40
2023-10-10T03:10:29.508Z,97.50
2023-10-10T03:11:29.556Z,97.50
2023-10-10T03:12:29.507Z,97.50
2023-10-10T03:13:29.961Z,97.50
2023-10-10T03:14:29.469Z,97.50
2023-10-10T03:15:29.681Z,97.50
2023-10-10T03:16:29.486Z,97.50
2023-10-10T03:17:29.349Z,97.60
2023-10-10T03:18:29.324Z,97.60
2023-10-10T03:19:29.346Z,97.71
2023-10-10T03:20:29.348Z,97.71
2023-10-10T03:21:29.211Z,97.71
2023-10-10T03:22:29.219Z,97.71
2023-10-10T03:23:29.256Z,97.80
2023-10-10T03:24:29.273Z,97.80
2023-10-10T03:25:29.204Z,97.80
2023-10-10T03:26:29.183Z,97.80
2023-10-10T03:27:29.236Z,97.71
2023-10-10T03:28:29.190Z,97.80
2023-10-10T03:29:29.276Z,97.80
2023-10-10T03:30:29.184Z,97.91
2023-10-10T03:31:29.195Z,97.91
2023-10-10T03:32:29.183Z,97.91
2023-10-10T03:33:29.185Z,97.91
2023-10-10T03:34:29.110Z,98.01
2023-10-10T03:35:29.115Z,97.91
2023-10-10T03:36:29.102Z,97.91
2023-10-10T03:37:29.145Z,97.80
2023-10-10T03:38:29.071Z,97.71
2023-10-10T03:39:28.968Z,97.75
2023-10-10T03:40:29.057Z,97.65
2023-10-10T03:41:29.084Z,97.65
2023-10-10T03:42:29.071Z,97.55
2023-10-10T03:43:29.004Z,97.65
2023-10-10T03:44:29.113Z,97.55
2023-10-10T03:45:28.897Z,97.55
2023-10-10T03:46:28.918Z,97.55
2023-10-10T03:47:28.978Z,97.55
2023-10-10T03:48:28.894Z,97.55
2023-10-10T03:49:28.851Z,97.65
2023-10-10T03:50:28.988Z,97.65
2023-10-10T03:51:28.846Z,97.65
2023-10-10T03:52:28.921Z,97.65
2023-10-10T03:53:28.892Z,97.55
2023-10-10T03:54:28.829Z,97.65
2023-10-10T03:55:28.863Z,97.65
2023-10-10T03:56:28.788Z,97.65
2023-10-10T03:57:28.771Z,97.65
2023-10-10T03:58:28.761Z,97.65
2023-10-10T03:59:28.985Z,97.65
2023-10-10T04:00:28.677Z,97.65
2023-10-10T04:01:28.730Z,97.65
2023-10-10T04:02:28.839Z,97.65
2023-10-10T04:03:28.748Z,97.55
2023-10-10T04:04:28.855Z,97.65
2023-10-10T04:05:28.876Z,97.65
2023-10-10T04:06:28.683Z,97.65
2023-10-10T04:07:28.644Z,97.65
2023-10-10T04:08:28.890Z,97.65
2023-10-10T04:09:28.605Z,97.65
2023-10-10T04:10:28.612Z,97.65
2023-10-10T04:11:28.609Z,97.65
2023-10-10T04:12:28.556Z,97.65
2023-10-10T04:13:28.583Z,97.75
2023-10-10T04:14:28.720Z,97.75
2023-10-10T04:15:28.646Z,97.85
2023-10-10T04:16:28.558Z,97.85
2023-10-10T04:17:28.596Z,97.85
2023-10-10T04:18:28.638Z,97.96
2023-10-10T04:19:28.492Z,97.96
2023-10-10T04:20:28.560Z,97.85
2023-10-10T04:21:28.491Z,97.96
2023-10-10T04:22:28.535Z,97.85
2023-10-10T04:23:28.490Z,97.96
2023-10-10T04:24:28.634Z,97.85
2023-10-10T04:25:28.410Z,97.85
2023-10-10T04:26:28.519Z,97.85
2023-10-10T04:27:28.397Z,97.85
2023-10-10T04:28:28.370Z,97.85
2023-10-10T04:29:28.443Z,97.96
2023-10-10T04:30:28.331Z,97.85
2023-10-10T04:31:28.472Z,97.85
2023-10-10T04:32:28.400Z,97.85
2023-10-10T04:33:28.360Z,97.85
2023-10-10T04:34:28.278Z,97.85
2023-10-10T04:35:29.495Z,97.85
2023-10-10T04:36:28.273Z,97.85
2023-10-10T04:37:28.499Z,97.96
2023-10-10T04:38:28.353Z,97.96
2023-10-10T04:39:28.181Z,97.96
2023-10-10T04:40:28.251Z,97.96
2023-10-10T04:41:28.297Z,97.96
2023-10-10T04:42:28.205Z,98.05
2023-10-10T04:43:28.255Z,98.05
2023-10-10T04:44:28.220Z,97.96
2023-10-10T04:45:28.262Z,98.05
2023-10-10T04:46:28.266Z,97.96
2023-10-10T04:47:28.140Z,97.96
2023-10-10T04:48:28.161Z,97.96
2023-10-10T04:49:28.099Z,97.96
2023-10-10T04:50:28.143Z,97.96
2023-10-10T04:51:28.066Z,97.85
2023-10-10T04:52:28.020Z,97.85
2023-10-10T04:53:28.068Z,97.85
2023-10-10T04:54:28.066Z,97.85
2023-10-10T04:55:28.016Z,97.75
2023-10-10T04:56:28.059Z,97.75
2023-10-10T04:57:28.005Z,97.75
2023-10-10T04:58:28.053Z,97.75
2023-10-10T04:59:28.065Z,97.75
2023-10-10T05:00:27.917Z,97.75
2023-10-10T05:01:28.093Z,97.55
2023-10-10T05:02:28.155Z,97.55
2023-10-10T05:03:28.197Z,97.55
2023-10-10T05:04:27.870Z,97.55
2023-10-10T05:05:27.975Z,97.65
2023-10-10T05:06:27.853Z,97.65
2023-10-10T05:07:27.912Z,97.65
2023-10-10T05:08:28.038Z,97.55
2023-10-10T05:09:27.800Z,97.55
2023-10-10T05:10:27.845Z,97.55
2023-10-10T05:11:27.884Z,97.65
2023-10-10T05:12:27.819Z,97.65
2023-10-10T05:13:27.885Z,97.65
2023-10-10T05:14:27.785Z,97.65
2023-10-10T05:15:27.965Z,97.75
2023-10-10T05:16:27.800Z,97.65
2023-10-10T05:17:27.931Z,97.65
2023-10-10T05:18:27.742Z,97.65
2023-10-10T05:19:27.823Z,97.75
2023-10-10T05:20:27.820Z,97.75
2023-10-10T05:21:27.632Z,97.75
2023-10-10T05:22:27.582Z,97.75
2023-10-10T05:23:27.725Z,97.85
2023-10-10T05:24:27.631Z,97.75
2023-10-10T05:25:27.623Z,97.75
2023-10-10T05:26:27.673Z,97.75
2023-10-10T05:27:27.678Z,97.75
2023-10-10T05:28:27.666Z,97.65
2023-10-10T05:29:27.790Z,97.65
2023-10-10T05:30:27.547Z,97.65
2023-10-10T05:31:27.668Z,97.55
2023-10-10T05:32:27.709Z,97.65
2023-10-10T05:33:28.018Z,97.65
2023-10-10T05:34:27.470Z,97.55
2023-10-10T05:35:27.483Z,97.55
2023-10-10T05:36:27.554Z,97.65
2023-10-10T05:37:27.448Z,97.65
2023-10-10T05:38:27.610Z,97.65
2023-10-10T05:39:27.409Z,97.65
2023-10-10T05:40:27.345Z,97.65
2023-10-10T05:41:27.455Z,97.55
2023-10-10T05:42:27.336Z,97.55
2023-10-10T05:43:27.828Z,97.55
2023-10-10T05:44:27.425Z,97.55
2023-10-10T05:45:27.495Z,97.44
2023-10-10T05:46:27.338Z,97.44
2023-10-10T05:47:27.392Z,97.44
2023-10-10T05:48:27.407Z,97.44
2023-10-10T05:49:28.334Z,97.55
2023-10-10T05:50:27.260Z,97.55
2023-10-10T05:51:27.284Z,97.55
2023-10-10T05:52:27.482Z,97.55
2023-10-10T05:53:27.382Z,97.65
2023-10-10T05:54:27.277Z,97.65
2023-10-10T05:55:27.330Z,97.75
2023-10-10T05:56:27.243Z,97.65
2023-10-10T05:57:27.184Z,97.55
2023-10-10T05:58:27.217Z,97.44
2023-10-10T05:59:27.176Z,97.55
2023-10-10T06:00:27.202Z,97.44
2023-10-10T06:01:27.144Z,97.44
2023-10-10T06:02:27.171Z,97.55
2023-10-10T06:03:27.176Z,97.44
2023-10-10T06:04:27.194Z,97.55
2023-10-10T06:05:27.066Z,97.55
2023-10-10T06:06:27.113Z,97.44
2023-10-10T06:07:27.052Z,97.55
2023-10-10T06:08:27.130Z,97.55
2023-10-10T06:09:27.078Z,97.44
2023-10-10T06:10:26.989Z,97.44
2023-10-10T06:11:27.019Z,97.44
2023-10-10T06:12:27.009Z,97.55
2023-10-10T06:13:26.986Z,97.55
2023-10-10T06:14:26.985Z,97.55
2023-10-10T06:15:27.054Z,97.55
2023-10-10T06:16:27.011Z,97.44
2023-10-10T06:17:27.044Z,97.55
2023-10-10T06:18:27.088Z,97.55
2023-10-10T06:19:26.888Z,97.44
2023-10-10T06:20:26.902Z,97.44
2023-10-10T06:21:26.974Z,97.44
2023-10-10T06:22:26.872Z,97.44
2023-10-10T06:23:26.965Z,97.34
2023-10-10T06:24:26.841Z,97.30
2023-10-10T06:25:26.764Z,97.30
2023-10-10T06:26:26.881Z,97.30
2023-10-10T06:27:27.270Z,97.30
2023-10-10T06:28:26.777Z,97.20
2023-10-10T06:29:26.882Z,97.09
2023-10-10T06:30:26.756Z,97.09
2023-10-10T06:31:26.813Z,96.99
2023-10-10T06:32:26.743Z,97.09
2023-10-10T06:33:26.755Z,96.99
2023-10-10T06:34:26.664Z,96.99
2023-10-10T06:35:26.698Z,96.79
2023-10-10T06:36:26.762Z,96.79
2023-10-10T06:37:26.700Z,96.79
2023-10-10T06:38:26.776Z,96.79
2023-10-10T06:39:26.674Z,96.79
2023-10-10T06:40:26.630Z,96.79
2023-10-10T06:41:26.605Z,96.79
2023-10-10T06:42:26.575Z,96.75
2023-10-10T06:43:26.590Z,96.75
2023-10-10T06:44:26.672Z,96.75
2023-10-10T06:45:26.787Z,96.84
2023-10-10T06:46:26.593Z,96.75
2023-10-10T06:47:26.580Z,96.75
2023-10-10T06:48:26.549Z,96.64
2023-10-10T06:49:27.076Z,96.64
2023-10-10T06:50:26.507Z,96.75
2023-10-10T06:51:26.454Z,96.75
2023-10-10T06:52:26.500Z,96.75
2023-10-10T06:53:26.425Z,96.75
2023-10-10T06:54:26.423Z,96.75
2023-10-10T06:55:26.401Z,96.75
2023-10-10T06:56:26.379Z,96.54
2023-10-10T06:57:26.423Z,96.44
2023-10-10T06:58:26.459Z,96.44
2023-10-10T06:59:26.393Z,96.44
2023-10-10T07:00:26.352Z,96.34
2023-10-10T07:01:26.406Z,96.23
2023-10-10T07:02:26.402Z,96.09
2023-10-10T07:03:26.348Z,96.09
2023-10-10T07:04:26.294Z,96.09
2023-10-10T07:05:26.329Z,96.09
2023-10-10T07:06:26.213Z,96.09
2023-10-10T07:07:26.233Z,96.09
2023-10-10T07:08:26.526Z,96.09
2023-10-10T07:09:26.271Z,96.09
2023-10-10T07:10:26.301Z,95.99
2023-10-10T07:11:26.259Z,95.99
2023-10-10T07:12:26.134Z,96.09
2023-10-10T07:13:26.144Z,96.09
2023-10-10T07:14:26.326Z,95.99
2023-10-10T07:15:26.210Z,95.99
2023-10-10T07:16:26.249Z,95.99
2023-10-10T07:17:26.129Z,95.89
2023-10-10T07:18:26.161Z,95.79
2023-10-10T07:19:26.081Z,95.68
2023-10-10T07:20:26.161Z,95.68
2023-10-10T07:21:26.103Z,95.54
2023-10-10T07:22:26.067Z,95.54
2023-10-10T07:23:26.031Z,95.34
2023-10-10T07:24:26.008Z,95.34
2023-10-10T07:25:26.252Z,95.13
2023-10-10T07:26:26.032Z,95.03
2023-10-10T07:27:26.069Z,95.03
2023-10-10T07:28:25.996Z,95.03
2023-10-10T07:29:25.995Z,95.13
2023-10-10T07:30:25.928Z,95.13
2023-10-10T07:31:26.066Z,95.13
2023-10-10T07:32:26.013Z,94.93
2023-10-10T07:33:25.921Z,94.93
2023-10-10T07:34:25.876Z,94.93
2023-10-10T07:35:26.002Z,94.89
2023-10-10T07:36:26.016Z,94.93
2023-10-10T07:37:25.837Z,94.78
2023-10-10T07:38:26.011Z,94.78
2023-10-10T07:39:25.833Z,94.89
2023-10-10T07:40:25.843Z,94.89
2023-10-10T07:41:25.943Z,94.68
2023-10-10T07:42:25.845Z,94.58
2023-10-10T07:43:25.766Z,94.48
2023-10-10T07:44:25.881Z,94.48
2023-10-10T07:45:25.823Z,94.38
2023-10-10T07:46:25.751Z,94.38
2023-10-10T07:47:25.906Z,94.38
2023-10-10T07:48:25.861Z,94.27
2023-10-10T07:49:25.803Z,94.27
2023-10-10T07:50:25.725Z,94.27
2023-10-10T07:51:25.757Z,94.18
2023-10-10T07:52:25.648Z,94.07
2023-10-10T07:53:25.710Z,93.93
2023-10-10T07:54:25.613Z,93.93
2023-10-10T07:55:25.609Z,93.93
2023-10-10T07:56:25.816Z,93.93
2023-10-10T07:57:25.646Z,93.73
2023-10-10T07:58:37.012Z,93.52
2023-10-10T07:59:26.572Z,93.52
2023-10-10T08:00:25.680Z,93.52
2023-10-10T08:01:25.603Z,93.42
2023-10-10T08:02:25.831Z,93.38
2023-10-10T08:03:25.592Z,93.48
2023-10-10T08:04:25.645Z,93.48
2023-10-10T08:05:25.516Z,93.38
2023-10-10T08:06:25.547Z,93.38
2023-10-10T08:07:25.619Z,93.38
2023-10-10T08:08:25.952Z,93.27
2023-10-10T08:09:25.442Z,93.18
2023-10-10T08:10:25.457Z,93.13
2023-10-10T08:11:26.262Z,92.93
2023-10-10T08:12:25.408Z,92.93
2023-10-10T08:13:25.400Z,92.52
2023-10-10T08:14:25.388Z,92.42
2023-10-10T08:15:25.391Z,92.42
2023-10-10T08:16:25.413Z,92.22
2023-10-10T08:17:25.535Z,92.02
2023-10-10T08:18:25.392Z,91.92
2023-10-10T08:19:25.312Z,91.92
2023-10-10T08:20:26.024Z,91.92
2023-10-10T08:21:25.262Z,91.57
2023-10-10T08:22:25.262Z,91.57
2023-10-10T08:23:25.368Z,91.47
2023-10-10T08:24:25.238Z,91.37
2023-10-10T08:25:25.186Z,91.16
2023-10-10T08:26:25.289Z,91.06
2023-10-10T08:27:25.196Z,90.96
2023-10-10T08:28:25.288Z,91.06
2023-10-10T08:29:25.195Z,91.16
2023-10-10T08:30:25.165Z,91.12
2023-10-10T08:31:25.208Z,91.12
2023-10-10T08:32:25.170Z,91.12
2023-10-10T08:33:25.226Z,90.92
2023-10-10T08:34:25.195Z,90.92
2023-10-10T08:35:25.165Z,90.92
2023-10-10T08:36:25.155Z,90.78
2023-10-10T08:37:25.038Z,90.67
2023-10-10T08:38:25.186Z,90.27
2023-10-10T08:39:25.144Z,90.07
2023-10-10T08:40:25.047Z,89.97
2023-10-10T08:41:24.985Z,89.97
2023-10-10T08:42:27.417Z,89.97
2023-10-10T08:43:25.083Z,89.72
2023-10-10T08:44:24.976Z,89.52
2023-10-10T08:45:25.033Z,89.52
2023-10-10T08:46:24.996Z,89.12
2023-10-10T08:47:25.081Z,88.41
2023-10-10T08:48:24.903Z,88.51
2023-10-10T08:49:24.944Z,88.41
2023-10-10T08:50:24.924Z,88.41
2023-10-10T08:51:24.886Z,88.37
2023-10-10T08:52:24.864Z,88.37
2023-10-10T08:53:24.927Z,88.37
2023-10-10T08:54:24.890Z,88.57
2023-10-10T08:55:24.906Z,88.47
2023-10-10T08:56:24.823Z,87.96
2023-10-10T08:57:24.820Z,87.86
2023-10-10T08:58:24.750Z,87.82
2023-10-10T08:59:24.878Z,87.82
2023-10-10T09:00:24.771Z,87.72
2023-10-10T09:01:24.716Z,87.62
2023-10-10T09:02:24.715Z,87.72
2023-10-10T09:03:24.817Z,87.32
2023-10-10T09:04:24.760Z,87.12
2023-10-10T09:05:24.693Z,86.61
2023-10-10T09:06:24.635Z,86.00
2023-10-10T09:07:24.718Z,86.10
2023-10-10T09:08:24.730Z,86.16
2023-10-10T09:09:24.596Z,86.47
2023-10-10T09:10:24.590Z,86.57
2023-10-10T09:11:24.741Z,86.57
2023-10-10T09:12:24.661Z,86.47
2023-10-10T09:13:24.563Z,86.36
2023-10-10T09:14:24.627Z,86.07
2023-10-10T09:15:24.495Z,86.07
2023-10-10T09:16:24.543Z,85.96
2023-10-10T09:17:24.580Z,85.76
2023-10-10T09:18:24.584Z,85.52
2023-10-10T09:19:24.491Z,85.62
2023-10-10T09:20:25.070Z,85.82
2023-10-10T09:21:24.588Z,85.62
2023-10-10T09:22:24.443Z,85.82
2023-10-10T09:23:24.577Z,86.02
2023-10-10T09:24:24.387Z,85.92
2023-10-10T09:25:24.385Z,86.02
2023-10-10T09:26:24.580Z,86.13
2023-10-10T09:27:24.386Z,85.88
2023-10-10T09:28:24.349Z,85.78
2023-10-10T09:29:24.357Z,85.58
2023-10-10T09:30:24.304Z,85.38
2023-10-10T09:31:24.313Z,85.08
2023-10-10T09:32:24.476Z,84.88
2023-10-10T09:33:24.345Z,84.97
2023-10-10T09:34:24.306Z,84.67
2023-10-10T09:35:24.265Z,84.77
2023-10-10T09:36:24.391Z,84.47
2023-10-10T09:37:24.257Z,84.57
2023-10-10T09:38:24.247Z,84.67
2023-10-10T09:39:24.196Z,84.88
2023-10-10T09:40:24.180Z,84.57
2023-10-10T09:41:24.273Z,84.27
2023-10-10T09:42:24.271Z,84.17
2023-10-10T09:43:24.224Z,84.17
2023-10-10T09:44:24.634Z,84.47
2023-10-10T09:45:24.129Z,84.88
2023-10-10T09:46:24.188Z,85.03
2023-10-10T09:47:24.146Z,85.03
2023-10-10T09:48:24.113Z,84.94
2023-10-10T09:49:24.073Z,84.43
2023-10-10T09:50:24.142Z,84.33
2023-10-10T09:51:24.062Z,84.23
2023-10-10T09:52:24.028Z,84.13
2023-10-10T09:53:24.070Z,84.43
2023-10-10T09:54:24.043Z,84.63
2023-10-10T09:55:23.991Z,84.74
2023-10-10T09:56:24.004Z,84.53
2023-10-10T09:57:23.957Z,84.49
2023-10-10T09:58:24.006Z,84.19
2023-10-10T09:59:23.941Z,84.09
2023-10-10T10:00:27.605Z,83.59
2023-10-10T10:01:24.059Z,83.48
2023-10-10T10:02:23.979Z,83.48
2023-10-10T10:03:23.914Z,83.18
2023-10-10T10:04:23.991Z,83.18
2023-10-10T10:05:23.873Z,82.88
2023-10-10T10:06:23.870Z,82.88
2023-10-10T10:07:23.827Z,82.78
2023-10-10T10:08:23.879Z,82.28
2023-10-10T10:09:23.841Z,82.34
2023-10-10T10:10:23.946Z,82.38
2023-10-10T10:11:23.864Z,82.44
2023-10-10T10:12:23.767Z,81.53
2023-10-10T10:13:23.746Z,81.23
2023-10-10T10:14:24.008Z,81.33
2023-10-10T10:15:23.760Z,81.53
2023-10-10T10:16:23.781Z,81.23
2023-10-10T10:17:23.713Z,81.43
2023-10-10T10:18:23.827Z,81.53
2023-10-10T10:19:23.720Z,81.23
2023-10-10T10:20:23.677Z,81.63
2023-10-10T10:21:23.690Z,81.43
2023-10-10T10:22:23.641Z,81.33
2023-10-10T10:23:23.632Z,80.12
2023-10-10T10:24:23.620Z,80.02
2023-10-10T10:28:56.328Z,80.79
2023-10-10T10:29:56.327Z,80.89
2023-10-10T10:30:56.306Z,81.09
2023-10-10T10:31:56.373Z,80.89
2023-10-10T10:32:56.381Z,80.58
2023-10-10T10:33:56.289Z,80.49
2023-10-10T10:34:56.246Z,80.39
2023-10-10T10:35:56.248Z,80.25
2023-10-10T10:36:56.207Z,79.94
2023-10-10T10:37:56.202Z,79.74
2023-10-10T10:38:56.198Z,79.64
2023-10-10T10:39:56.179Z,79.94
2023-10-10T10:40:56.166Z,80.05
2023-10-10T10:41:56.174Z,79.54
2023-10-10T10:42:56.147Z,79.64
2023-10-10T10:43:56.118Z,80.35
2023-10-10T10:44:56.362Z,80.55
2023-10-10T10:45:56.125Z,80.25
2023-10-10T10:46:56.121Z,79.85
2023-10-10T10:47:56.223Z,79.85
2023-10-10T10:48:56.141Z,80.05
2023-10-10T10:49:56.058Z,80.15
2023-10-10T10:50:56.137Z,79.94
2023-10-10T10:51:56.137Z,79.54
2023-10-10T10:52:56.151Z,79.71
2023-10-10T10:53:56.068Z,79.64
2023-10-10T10:54:56.000Z,79.41
2023-10-10T10:55:56.199Z,79.71
2023-10-10T10:56:55.968Z,80.31
2023-10-10T10:57:55.970Z,80.41
2023-10-10T10:58:55.972Z,79.91
2023-10-10T10:59:56.035Z,79.81
2023-10-10T11:00:55.909Z,79.41
2023-10-10T11:01:56.052Z,79.21
2023-10-10T11:02:57.201Z,79.50
2023-10-10T11:03:55.899Z,79.61
2023-10-10T11:04:55.890Z,79.57
2023-10-10T11:05:55.880Z,79.37
2023-10-10T11:06:55.847Z,79.06
2023-10-10T11:07:55.825Z,79.06
2023-10-10T11:08:58.112Z,79.27
2023-10-10T11:09:55.849Z,79.17
2023-10-10T11:10:55.767Z,78.86
2023-10-10T11:11:55.814Z,78.77
2023-10-10T11:12:55.815Z,78.56
2023-10-10T11:13:55.732Z,78.06
2023-10-10T11:14:55.744Z,77.96
2023-10-10T11:15:55.742Z,77.66
2023-10-10T11:16:55.726Z,78.36
2023-10-10T11:17:55.748Z,78.27
2023-10-10T11:18:55.698Z,78.16
2023-10-10T11:19:55.896Z,78.36
2023-10-10T11:20:55.704Z,78.36
2023-10-10T11:21:55.640Z,78.36
2023-10-10T11:22:55.665Z,78.12
2023-10-10T11:23:55.620Z,78.83
2023-10-10T11:24:55.590Z,78.83
2023-10-10T11:25:55.572Z,78.42
2023-10-10T11:26:55.579Z,78.42
2023-10-10T11:27:55.580Z,78.03
2023-10-10T11:28:55.582Z,77.72
2023-10-10T11:29:55.608Z,78.12
2023-10-10T11:30:55.505Z,78.49
2023-10-10T11:31:55.481Z,78.19
2023-10-10T11:32:55.581Z,76.78
2023-10-10T11:33:55.485Z,76.38
2023-10-10T11:34:55.451Z,76.38
2023-10-10T11:35:55.484Z,76.89
2023-10-10T11:36:55.481Z,76.78
2023-10-10T11:37:55.430Z,76.98
2023-10-10T11:38:55.452Z,77.28
2023-10-10T11:39:55.394Z,76.78
2023-10-10T11:40:55.393Z,76.98
2023-10-10T11:41:55.375Z,76.68
2023-10-10T11:42:55.368Z,76.75
2023-10-10T11:43:55.314Z,76.65
2023-10-10T11:44:55.456Z,77.25
2023-10-10T11:45:55.396Z,77.65
2023-10-10T11:46:55.300Z,76.45
2023-10-10T11:47:55.366Z,76.48
2023-10-10T11:48:55.287Z,77.19
2023-10-10T11:49:55.242Z,76.98
2023-10-10T11:50:55.345Z,76.78
2023-10-10T11:51:55.242Z,76.95
2023-10-10T11:52:55.212Z,76.48
2023-10-10T11:53:55.253Z,76.58
2023-10-10T11:54:55.198Z,76.85
2023-10-10T11:55:55.217Z,76.34
2023-10-10T11:56:55.160Z,76.34
2023-10-10T11:57:55.170Z,75.54
2023-10-10T11:58:55.163Z,75.34
2023-10-10T11:59:55.173Z,74.54
2023-10-10T12:00:55.151Z,74.34
2023-10-10T12:01:55.109Z,74.24
2023-10-10T12:02:55.187Z,74.34
2023-10-10T12:03:55.149Z,74.64
2023-10-10T12:04:55.123Z,73.54
2023-10-10T12:05:55.124Z,73.44
2023-10-10T12:07:05.527Z,73.90
2023-10-10T12:07:56.077Z,74.51
2023-10-10T12:09:03.660Z,74.10
2023-10-10T12:09:55.979Z,73.90
2023-10-10T12:12:20.482Z,74.71
2023-10-10T12:13:19.829Z,73.40
2023-10-10T12:14:19.832Z,72.60
2023-10-10T12:15:19.798Z,73.30
2023-10-10T12:16:19.809Z,73.40
2023-10-10T12:17:19.764Z,72.60
2023-10-10T12:18:19.858Z,72.40
2023-10-10T12:19:19.802Z,72.16
2023-10-10T12:20:23.873Z,72.86
2023-10-10T12:21:20.831Z,71.86
2023-10-10T12:22:19.688Z,71.96
2023-10-10T12:23:22.692Z,72.27
2023-10-10T12:24:19.683Z,72.06
2023-10-10T12:25:19.653Z,72.66
2023-10-10T12:26:19.746Z,71.26
2023-10-10T12:27:19.617Z,71.06
2023-10-10T12:28:19.591Z,71.06
2023-10-10T12:29:19.599Z,71.66
2023-10-10T12:30:19.565Z,72.06
2023-10-10T12:31:19.567Z,71.56
2023-10-10T12:32:19.618Z,72.27
2023-10-10T12:33:19.641Z,71.86
2023-10-10T12:34:19.529Z,71.26
2023-10-10T12:35:19.529Z,71.66
2023-10-10T12:36:19.499Z,71.66
2023-10-10T12:37:19.499Z,71.56
2023-10-10T12:38:19.489Z,71.66
2023-10-10T12:39:19.485Z,72.06
2023-10-10T12:40:19.438Z,71.86
2023-10-10T12:41:19.476Z,72.56
2023-10-10T12:42:19.420Z,72.27
2023-10-10T12:43:19.398Z,72.06
2023-10-10T12:44:19.429Z,72.47
2023-10-10T12:45:19.366Z,72.36
2023-10-10T12:46:19.502Z,71.26
2023-10-10T12:47:19.608Z,70.06
2023-10-10T12:48:19.689Z,69.73
2023-10-10T12:49:19.509Z,70.73
2023-10-10T12:50:19.332Z,70.12
2023-10-10T12:51:19.349Z,70.73
2023-10-10T12:52:19.558Z,70.73
2023-10-10T12:53:19.310Z,70.83
2023-10-10T12:54:19.369Z,70.73
2023-10-10T12:55:19.274Z,69.53
2023-10-10T12:56:19.307Z,69.82
2023-10-10T12:57:19.205Z,69.93